Time;durP1;ratioP1;P1;durP2;ratioP2;P2;SDS_P1;SDS_P2;PMS_P1;PMS_P2;Temp;Humidity;BMP_temperature;BMP_pressure;BME280_temperature;BME280_humidity;BME280_pressure;Samples;Min_cycle;Max_cycle;Signal;HPM_P1;HPM_P2
2022/05/08 00:00:52;;;;;;;7.70;3.60;;;;;;;12.51;37.26;101266.41;124459;1099;104313;-77
2022/05/08 00:03:24;;;;;;;10.53;3.80;;;;;;;12.46;37.32;101271.48;124207;1102;102355;-78
2022/05/08 00:05:59;;;;;;;12.43;4.40;;;;;;;12.41;37.30;101276.56;124475;1099;104159;-77
2022/05/08 00:08:30;;;;;;;11.37;4.23;;;;;;;12.41;37.38;101273.94;125098;1099;104255;-78
2022/05/08 00:11:03;;;;;;;9.87;3.83;;;;;;;12.40;37.61;101279.14;124189;1102;102551;-78
2022/05/08 00:13:35;;;;;;;12.20;4.10;;;;;;;12.36;37.70;101278.13;124798;1099;104114;-77
2022/05/08 00:16:07;;;;;;;10.20;4.03;;;;;;;12.34;37.46;101278.89;124789;1099;104211;-77
2022/05/08 00:18:40;;;;;;;14.70;4.80;;;;;;;12.30;37.59;101276.98;124831;1099;104249;-77
2022/05/08 00:21:12;;;;;;;10.23;4.40;;;;;;;12.29;37.55;101275.17;124763;1099;104172;-77
2022/05/08 00:23:43;;;;;;;12.50;4.10;;;;;;;12.25;37.63;101279.42;125737;1096;102510;-77
2022/05/08 00:26:15;;;;;;;12.40;3.57;;;;;;;12.24;37.64;101274.98;124787;1099;104219;-77
2022/05/08 00:28:47;;;;;;;15.13;4.57;;;;;;;12.19;37.61;101274.80;126107;1095;103296;-77
2022/05/08 00:31:25;;;;;;;9.67;3.80;;;;;;;12.16;37.60;101271.15;124872;1099;104204;-78
2022/05/08 00:33:59;;;;;;;17.70;4.33;;;;;;;12.12;38.08;101275.36;124865;1099;103479;-77
2022/05/08 00:36:30;;;;;;;11.43;3.90;;;;;;;12.10;37.99;101274.41;124887;1099;101934;-77
2022/05/08 00:39:02;;;;;;;10.67;3.87;;;;;;;12.10;37.95;101273.52;124823;1099;104120;-77
2022/05/08 00:41:35;;;;;;;9.57;3.60;;;;;;;12.10;37.97;101274.41;124958;1096;102161;-77
2022/05/08 00:44:08;;;;;;;9.80;3.67;;;;;;;12.10;38.14;101273.52;124945;1099;102443;-77
2022/05/08 00:46:39;;;;;;;14.77;4.30;;;;;;;12.08;38.20;101272.58;124854;1097;104206;-77
2022/05/08 00:49:21;;;;;;;10.23;3.93;;;;;;;12.08;38.05;101267.31;124909;1099;104249;-77
2022/05/08 00:51:53;;;;;;;13.60;4.10;;;;;;;12.06;37.93;101269.88;124796;1099;104235;-77
2022/05/08 00:54:24;;;;;;;9.90;3.80;;;;;;;12.05;38.17;101270.70;124738;1099;103397;-77
2022/05/08 00:56:57;;;;;;;8.10;3.80;;;;;;;12.05;38.40;101266.33;124913;1099;104258;-78
2022/05/08 00:59:29;;;;;;;15.50;4.20;;;;;;;12.02;38.32;101271.45;124785;1099;104232;-77
2022/05/08 01:02:03;;;;;;;30.20;5.10;;;;;;;12.02;38.41;101266.20;124757;1096;104242;-78
2022/05/08 01:04:36;;;;;;;23.87;5.10;;;;;;;12.00;38.56;101270.50;124832;1099;104405;-77
2022/05/08 01:07:08;;;;;;;24.97;4.50;;;;;;;12.01;38.42;101277.58;124836;1096;102868;-77
2022/05/08 01:09:40;;;;;;;23.87;4.50;;;;;;;11.99;38.64;101266.06;124835;1096;102110;-77
2022/05/08 01:12:14;;;;;;;13.23;4.50;;;;;;;11.97;38.24;101277.37;124799;1099;104271;-77
2022/05/08 01:14:51;;;;;;;11.83;3.60;;;;;;;11.94;38.39;101277.25;124926;1099;104201;-78
2022/05/08 01:17:22;;;;;;;14.83;4.20;;;;;;;11.90;38.63;101267.38;124898;1099;104730;-77
2022/05/08 01:19:54;;;;;;;19.33;4.63;;;;;;;11.87;38.63;101273.40;124851;1099;104302;-77
2022/05/08 01:22:32;;;;;;;12.33;3.77;;;;;;;11.84;38.67;101274.19;124858;1099;102749;-78
2022/05/08 01:25:05;;;;;;;12.00;4.30;;;;;;;11.84;38.59;101268.94;125039;1099;104224;-77
2022/05/08 01:27:37;;;;;;;8.43;3.73;;;;;;;11.81;38.77;101276.69;124884;1099;104887;-78
2022/05/08 01:30:10;;;;;;;11.93;4.10;;;;;;;11.79;38.85;101267.81;124864;1099;104159;-78
2022/05/08 01:32:42;;;;;;;9.28;3.90;;;;;;;11.78;39.05;101266.04;124813;1099;104214;-78
2022/05/08 01:35:13;;;;;;;9.47;3.97;;;;;;;11.76;38.69;101265.05;124760;1099;103383;-78
2022/05/08 01:37:45;;;;;;;9.37;3.60;;;;;;;11.73;39.03;101264.03;124800;1098;104311;-78
2022/05/08 01:40:18;;;;;;;9.43;3.70;;;;;;;11.69;38.77;101265.64;124751;1099;102807;-78
2022/05/08 01:42:51;;;;;;;8.53;3.77;;;;;;;11.64;39.10;101272.41;124829;1099;104160;-77
2022/05/08 01:45:22;;;;;;;8.60;3.50;;;;;;;11.61;39.38;101265.30;124769;1099;102880;-77
2022/05/08 01:50:43;;;;;;;8.90;3.33;;;;;;;11.49;39.23;101268.28;124795;1098;101933;-77
2022/05/08 01:53:15;;;;;;;13.73;4.00;;;;;;;11.42;39.39;101268.86;124762;1098;104163;-77
2022/05/08 01:55:49;;;;;;;12.73;3.83;;;;;;;11.36;39.38;101263.33;124778;1099;104041;-78
2022/05/08 01:58:22;;;;;;;9.23;3.43;;;;;;;11.34;39.81;101264.97;124849;1099;102126;-77
2022/05/08 02:00:55;;;;;;;9.73;3.57;;;;;;;11.28;39.64;101260.36;124821;1099;104294;-77
2022/05/08 02:03:27;;;;;;;9.43;3.47;;;;;;;11.24;39.95;101261.03;124738;1099;104289;-77
2022/05/08 02:05:59;;;;;;;8.90;4.07;;;;;;;11.23;39.72;101263.59;124757;1099;102284;-77
2022/05/08 02:08:31;;;;;;;9.40;4.00;;;;;;;11.21;40.14;101267.89;124732;1099;102114;-78
2022/05/08 02:11:03;;;;;;;10.73;4.07;;;;;;;11.17;40.35;101258.06;124787;1099;104172;-78
2022/05/08 02:13:34;;;;;;;9.47;3.80;;;;;;;11.18;39.91;101262.50;124779;1099;101844;-77
2022/05/08 02:16:06;;;;;;;9.93;3.80;;;;;;;11.13;40.55;101268.43;124781;1099;101985;-77
2022/05/08 02:18:38;;;;;;;9.93;3.90;;;;;;;11.09;40.96;101260.34;124765;1098;104238;-77
2022/05/08 02:21:11;;;;;;;9.50;3.53;;;;;;;11.05;40.52;101268.93;124811;1099;102778;-77
2022/05/08 02:23:42;;;;;;;9.87;3.90;;;;;;;10.99;40.65;101266.91;124798;1098;102791;-77
2022/05/08 02:26:13;;;;;;;9.37;3.80;;;;;;;10.99;41.32;101268.64;124812;1096;102795;-77
2022/05/08 02:28:45;;;;;;;11.00;4.43;;;;;;;10.94;40.94;101265.80;124756;1096;103028;-77
2022/05/08 02:31:16;;;;;;;10.63;4.03;;;;;;;10.88;41.04;101266.41;124805;1096;104198;-77
2022/05/08 02:33:51;;;;;;;11.03;4.20;;;;;;;10.86;41.22;101262.82;124778;1099;102647;-77
2022/05/08 02:36:29;;;;;;;13.10;4.50;;;;;;;10.82;41.35;101265.23;125618;1099;104249;-77
2022/05/08 02:39:01;;;;;;;10.20;4.07;;;;;;;10.78;41.72;101272.03;125628;1099;102173;-77
2022/05/08 02:41:34;;;;;;;11.67;4.00;;;;;;;10.76;41.91;101273.70;124786;1099;103485;-77
2022/05/08 02:44:07;;;;;;;10.43;4.25;;;;;;;10.70;41.80;101276.92;124788;1096;104251;-77
2022/05/08 02:46:40;;;;;;;10.08;3.87;;;;;;;10.64;41.95;101280.99;124764;1099;104144;-77
2022/05/08 02:49:17;;;;;;;14.07;4.30;;;;;;;10.54;42.12;101271.78;124808;1099;104252;-77
2022/05/08 02:51:51;;;;;;;14.90;4.30;;;;;;;10.56;42.37;101286.76;124875;1099;102781;-77
2022/05/08 02:54:23;;;;;;;15.18;4.37;;;;;;;10.54;42.00;101290.16;124765;1098;105015;-77
2022/05/08 02:59:43;;;;;;;10.77;4.57;;;;;;;10.52;42.06;101289.20;124739;1099;104201;-77
2022/05/08 03:02:16;;;;;;;14.53;4.60;;;;;;;10.49;42.72;101292.56;124776;1099;102781;-78
2022/05/08 03:04:47;;;;;;;13.10;4.67;;;;;;;10.50;42.70;101281.25;124783;1099;104155;-78
2022/05/08 03:07:19;;;;;;;12.93;4.67;;;;;;;10.49;42.11;101294.30;124737;1099;104341;-77
2022/05/08 03:09:52;;;;;;;15.63;4.97;;;;;;;10.45;42.92;101292.33;124753;1096;104153;-77
2022/05/08 03:12:25;;;;;;;13.40;4.53;;;;;;;10.44;42.50;101299.31;124725;1099;104274;-78
2022/05/08 03:14:57;;;;;;;15.70;5.20;;;;;;;10.45;42.56;101300.20;124808;1099;104226;-77
2022/05/08 03:17:29;;;;;;;13.23;4.60;;;;;;;10.46;43.21;101304.64;124823;1099;104197;-78
2022/05/08 03:20:00;;;;;;;14.93;4.87;;;;;;;10.45;42.75;101300.20;124799;1099;102979;-77
2022/05/08 03:22:32;;;;;;;19.77;5.10;;;;;;;10.48;43.35;101310.84;124790;1099;104153;-78
2022/05/08 03:25:12;;;;;;;14.77;5.20;;;;;;;10.49;43.47;101307.41;125524;1098;104207;-78
2022/05/08 03:27:43;;;;;;;19.80;5.20;;;;;;;10.50;42.94;101309.19;124771;1099;104216;-78
2022/05/08 03:30:24;;;;;;;17.27;5.20;;;;;;;10.50;43.66;101315.36;124969;1099;104201;-77
2022/05/08 03:32:57;;;;;;;16.07;5.37;;;;;;;10.47;43.78;101304.71;124875;1098;102196;-78
2022/05/08 03:35:29;;;;;;;14.60;5.00;;;;;;;10.51;43.40;101306.64;124853;1099;108247;-78
2022/05/08 03:38:01;;;;;;;16.50;5.13;;;;;;;10.55;43.96;101302.43;124849;1099;104185;-78
2022/05/08 03:40:34;;;;;;;16.13;5.13;;;;;;;10.60;43.52;101298.33;124826;1099;104834;-78
2022/05/08 03:43:06;;;;;;;14.85;5.25;;;;;;;10.64;43.65;101302.88;124762;1099;102813;-78
2022/05/08 03:45:39;;;;;;;13.23;4.70;;;;;;;10.72;44.21;101301.55;124693;1099;104349;-77
2022/05/08 03:48:11;;;;;;;17.23;5.07;;;;;;;10.81;43.56;101302.80;124768;1099;104434;-77
2022/05/08 03:50:42;;;;;;;18.20;5.33;;;;;;;10.88;44.12;101303.16;124802;1099;104618;-77
2022/05/08 03:53:15;;;;;;;15.73;5.00;;;;;;;10.95;43.75;101302.64;124811;1098;104210;-78
2022/05/08 03:55:46;;;;;;;14.63;5.00;;;;;;;11.02;44.04;101310.80;124788;1098;104325;-78
2022/05/08 03:58:19;;;;;;;13.57;5.30;;;;;;;11.07;44.24;101312.80;124893;1099;104329;-78
2022/05/08 04:00:51;;;;;;;20.17;5.50;;;;;;;11.11;44.05;101311.20;124824;1099;103601;-77
2022/05/08 04:03:22;;;;;;;11.13;5.27;;;;;;;11.15;44.16;101314.04;125133;1099;103265;-77
2022/05/08 04:05:54;;;;;;;16.57;5.60;;;;;;;11.22;44.24;101317.88;124796;1099;104281;-77
2022/05/08 04:08:26;;;;;;;18.53;4.77;;;;;;;11.31;44.01;101314.75;124806;1099;104156;-77
2022/05/08 04:10:58;;;;;;;16.47;5.10;;;;;;;11.41;43.94;101316.98;124767;1099;104525;-77
2022/05/08 04:13:30;;;;;;;17.20;5.20;;;;;;;11.48;44.08;101319.06;124754;1098;104560;-77
2022/05/08 04:16:19;;;;;;;13.27;4.87;;;;;;;11.54;43.97;101317.53;124760;1099;104297;-78
2022/05/08 04:18:51;;;;;;;13.80;4.70;;;;;;;11.61;44.00;101311.70;124777;1098;104163;-78
2022/05/08 04:21:22;;;;;;;14.40;4.30;;;;;;;11.65;43.89;101314.53;124780;1099;104297;-78
2022/05/08 04:26:44;;;;;;;14.07;4.20;;;;;;;11.73;43.46;101308.73;124852;1099;108212;-78
2022/05/08 04:29:15;;;;;;;12.50;4.17;;;;;;;11.78;43.74;101312.45;124891;1099;104232;-78
2022/05/08 04:31:47;;;;;;;12.27;4.57;;;;;;;11.84;43.62;101316.27;124752;1099;104203;-77
2022/05/08 04:34:21;;;;;;;12.17;4.80;;;;;;;11.92;43.42;101316.63;124764;1099;101949;-78
2022/05/08 04:36:53;;;;;;;12.97;4.57;;;;;;;11.97;43.69;101314.20;124878;1099;104351;-77
2022/05/08 04:39:26;;;;;;;16.83;4.73;;;;;;;12.04;43.39;101316.24;124776;1099;102813;-77
2022/05/08 04:41:59;;;;;;;14.67;4.13;;;;;;;12.08;43.08;101315.55;124860;1099;104159;-78
2022/05/08 04:44:30;;;;;;;7.90;4.13;;;;;;;12.13;43.26;101319.27;124783;1099;104217;-77
2022/05/08 04:47:02;;;;;;;12.87;4.40;;;;;;;12.18;43.29;101320.34;124812;1099;104163;-77
2022/05/08 04:49:35;;;;;;;13.30;4.80;;;;;;;12.24;43.04;101322.35;124827;1098;104356;-77
2022/05/08 04:52:08;;;;;;;12.03;4.67;;;;;;;12.27;43.49;101318.96;124747;1099;104271;-77
2022/05/08 04:54:39;;;;;;;13.83;5.10;;;;;;;12.33;43.14;101325.37;124805;1098;104941;-77
2022/05/08 04:57:11;;;;;;;16.00;4.90;;;;;;;12.41;43.14;101328.32;124788;1099;104153;-77
2022/05/08 04:59:44;;;;;;;17.23;4.77;;;;;;;12.50;43.17;101325.18;124812;1099;103212;-78
2022/05/08 05:02:16;;;;;;;13.67;4.47;;;;;;;12.57;43.17;101325.50;124767;1099;104327;-77
2022/05/08 05:04:47;;;;;;;14.57;4.60;;;;;;;12.61;43.29;101321.24;124848;1097;104191;-77
2022/05/08 05:07:20;;;;;;;11.90;4.83;;;;;;;12.66;43.04;101324.06;124837;1099;104210;-78
2022/05/08 05:09:53;;;;;;;10.17;3.90;;;;;;;12.74;43.02;101330.53;124769;1099;104385;-77
2022/05/08 05:12:26;;;;;;;14.67;4.27;;;;;;;12.81;43.12;101326.39;124815;1099;104252;-77
2022/05/08 05:15:00;;;;;;;16.32;4.30;;;;;;;12.88;43.48;101315.27;124798;1099;101975;-77
2022/05/08 05:17:31;;;;;;;11.20;4.33;;;;;;;12.95;42.94;101322.59;124798;1099;104173;-78
2022/05/08 05:20:03;;;;;;;10.23;4.40;;;;;;;13.01;42.91;101320.20;124843;1099;102187;-77
2022/05/08 05:22:35;;;;;;;9.90;4.30;;;;;;;13.08;42.94;101321.32;124814;1099;104331;-77
2022/05/08 05:25:08;;;;;;;16.50;4.50;;;;;;;13.11;42.73;101321.44;124829;1099;104224;-77
2022/05/08 05:27:40;;;;;;;11.33;4.30;;;;;;;13.16;43.03;101322.50;124837;1099;104153;-77
2022/05/08 05:30:15;;;;;;;11.90;4.50;;;;;;;13.21;42.71;101320.93;124819;1099;104159;-77
2022/05/08 05:32:48;;;;;;;14.00;5.10;;;;;;;13.28;42.54;101328.24;124925;1099;104051;-77
2022/05/08 05:35:19;;;;;;;12.03;4.07;;;;;;;13.36;42.91;101330.32;124819;1099;102477;-76
2022/05/08 05:37:51;;;;;;;11.80;4.30;;;;;;;13.43;42.94;101329.69;124810;1099;101815;-77
2022/05/08 05:40:23;;;;;;;11.93;4.03;;;;;;;13.51;42.80;101337.88;124820;1099;102819;-77
2022/05/08 05:42:54;;;;;;;12.23;3.90;;;;;;;13.60;42.32;101330.31;124775;1099;104281;-77
2022/05/08 05:45:26;;;;;;;8.23;3.70;;;;;;;13.64;42.90;101330.48;124754;1099;102515;-77
2022/05/08 05:48:00;;;;;;;7.60;3.60;;;;;;;13.76;42.15;101331.75;124741;1099;104220;-76
2022/05/08 05:50:31;;;;;;;7.45;3.30;;;;;;;13.86;42.62;101328.62;124819;1099;102810;-77
2022/05/08 05:53:02;;;;;;;8.60;3.40;;;;;;;13.97;41.81;101332.52;124797;1099;104239;-76
2022/05/08 05:55:34;;;;;;;11.47;3.77;;;;;;;14.11;41.37;101338.28;124741;1099;104335;-77
2022/05/08 05:58:11;;;;;;;9.73;3.57;;;;;;;14.20;41.75;101335.97;124824;1099;104415;-77
2022/05/08 06:00:42;;;;;;;7.77;3.23;;;;;;;14.31;41.48;101332.80;124784;1099;104159;-77
2022/05/08 06:03:14;;;;;;;9.67;2.97;;;;;;;14.35;41.50;101332.96;124780;1099;104236;-77
2022/05/08 06:05:46;;;;;;;11.47;3.47;;;;;;;14.42;40.59;101325.25;124799;1097;104284;-77
2022/05/08 06:08:18;;;;;;;6.17;3.03;;;;;;;14.51;41.51;101328.19;124718;1099;104695;-77
2022/05/08 06:10:51;;;;;;;7.20;3.37;;;;;;;14.61;40.95;101329.41;124937;1099;102778;-77
2022/05/08 06:13:23;;;;;;;7.93;3.00;;;;;;;14.69;40.83;101335.83;124902;1099;104235;-77
2022/05/08 06:15:55;;;;;;;7.77;3.07;;;;;;;14.75;40.22;101325.45;124872;1099;101864;-77
2022/05/08 06:18:27;;;;;;;7.63;3.00;;;;;;;14.83;40.16;101329.23;124784;1096;103098;-77
2022/05/08 06:20:58;;;;;;;6.73;2.87;;;;;;;14.91;40.03;101324.19;124840;1096;104173;-77
2022/05/08 06:23:29;;;;;;;6.30;2.77;;;;;;;15.01;40.39;101326.28;124893;1097;102772;-77
2022/05/08 06:26:06;;;;;;;8.90;3.10;;;;;;;15.12;39.77;101325.72;124829;1095;102752;-77
2022/05/08 06:28:38;;;;;;;7.33;2.80;;;;;;;15.21;40.13;101332.17;124815;1099;104208;-78
2022/05/08 06:31:10;;;;;;;7.73;2.90;;;;;;;15.32;38.90;101327.20;124787;1099;102511;-78
2022/05/08 06:33:43;;;;;;;8.47;2.57;;;;;;;15.44;39.39;101335.50;124793;1099;104238;-77
2022/05/08 06:36:16;;;;;;;8.43;3.20;;;;;;;15.54;37.80;101325.19;125337;1099;104080;-77
2022/05/08 06:38:49;;;;;;;8.30;2.73;;;;;;;15.64;37.44;101321.93;124917;1097;104224;-77
2022/05/08 06:41:23;;;;;;;7.30;2.70;;;;;;;15.74;38.37;101318.70;124831;1097;104316;-77
2022/05/08 06:43:55;;;;;;;7.10;2.87;;;;;;;15.85;38.00;101320.76;124859;1098;104353;-77
2022/05/08 06:46:26;;;;;;;6.60;2.90;;;;;;;15.98;37.88;101322.89;124792;1099;104746;-77
2022/05/08 06:48:57;;;;;;;6.17;2.57;;;;;;;16.12;37.56;101316.20;124852;1096;104166;-77
2022/05/08 06:51:29;;;;;;;5.80;2.60;;;;;;;16.24;37.09;101318.28;124958;1099;104192;-77
2022/05/08 06:54:00;;;;;;;5.77;2.63;;;;;;;16.39;37.58;101320.41;124936;1099;102937;-77
2022/05/08 06:56:35;;;;;;;8.00;2.73;;;;;;;16.53;37.00;101312.80;124757;1098;104294;-77
2022/05/08 07:01:55;;;;;;;4.93;2.80;;;;;;;16.86;36.45;101312.75;124867;1099;101851;-77
2022/05/08 07:04:27;;;;;;;8.40;3.10;;;;;;;17.01;35.90;101313.95;125280;1096;104259;-77
2022/05/08 07:06:59;;;;;;;6.07;2.60;;;;;;;17.16;36.20;101311.63;124882;1099;104287;-77
2022/05/08 07:09:32;;;;;;;5.03;2.90;;;;;;;17.36;36.07;101311.17;124841;1099;102894;-78
2022/05/08 07:12:03;;;;;;;7.63;2.77;;;;;;;17.55;36.15;101309.78;124838;1099;104326;-77
2022/05/08 07:14:38;;;;;;;9.13;2.97;;;;;;;17.78;34.84;101311.13;125147;1099;102781;-77
2022/05/08 07:17:10;;;;;;;7.27;2.47;;;;;;;17.90;34.09;101309.59;125380;1099;102061;-77
2022/05/08 07:19:41;;;;;;;8.03;2.40;;;;;;;18.02;33.43;101306.28;125203;1099;102858;-77
2022/05/08 07:22:12;;;;;;;7.93;2.23;;;;;;;18.17;34.04;101305.63;124834;1099;104271;-78
2022/05/08 07:24:44;;;;;;;5.77;2.47;;;;;;;18.30;34.17;101300.55;124917;1097;104307;-78
2022/05/08 07:27:15;;;;;;;5.50;2.43;;;;;;;18.48;34.00;101296.41;124923;1099;104252;-77
2022/05/08 07:29:48;;;;;;;8.97;2.70;;;;;;;18.67;33.06;101293.17;125088;1099;104207;-77
2022/05/08 07:32:19;;;;;;;5.63;2.20;;;;;;;18.89;32.90;101304.16;127577;1097;101507;-77
2022/05/08 07:37:41;;;;;;;8.23;2.40;;;;;;;19.14;31.40;101299.19;125208;1098;102810;-78
2022/05/08 07:40:20;;;;;;;4.43;2.27;;;;;;;19.21;30.00;101295.71;125351;1099;102897;-77
2022/05/08 07:42:58;;;;;;;4.13;2.13;;;;;;;19.32;30.99;101299.42;125322;1099;104261;-77
2022/05/08 07:45:31;;;;;;;6.07;2.33;;;;;;;19.47;31.10;101303.14;125318;1099;104198;-77
2022/05/08 07:48:03;;;;;;;4.47;2.40;;;;;;;19.54;30.16;101303.23;125025;1099;104152;-77
2022/05/08 07:50:36;;;;;;;5.47;2.50;;;;;;;19.71;31.12;101307.83;124926;1099;102252;-77
2022/05/08 07:53:08;;;;;;;4.10;2.42;;;;;;;19.92;30.22;101300.11;125048;1099;104195;-77
2022/05/08 07:55:41;;;;;;;2.93;2.00;;;;;;;20.07;29.73;101302.03;125219;1099;102795;-77
2022/05/08 07:58:12;;;;;;;5.43;2.13;;;;;;;20.15;29.78;101303.86;126280;1097;102150;-75
2022/05/08 08:00:44;;;;;;;5.73;2.60;;;;;;;20.29;31.02;101296.91;125075;1099;102872;-75
2022/05/08 08:03:17;;;;;;;6.10;2.43;;;;;;;20.36;29.86;101298.72;125016;1099;104246;-74
2022/05/08 08:05:51;;;;;;;9.67;2.30;;;;;;;20.42;29.00;101293.44;125293;1099;104037;-74
2022/05/08 08:08:25;;;;;;;5.58;2.50;;;;;;;20.48;29.78;101290.81;124899;1099;104178;-75
2022/05/08 08:11:03;;;;;;;4.35;2.60;;;;;;;20.67;29.36;101295.44;124994;1099;104265;-75
2022/05/08 08:13:35;;;;;;;6.50;2.57;;;;;;;20.82;29.62;101288.42;125018;1099;104300;-74
2022/05/08 08:16:11;;;;;;;11.33;2.93;;;;;;;20.95;28.61;101293.83;126464;1097;104319;-75
2022/05/08 08:18:43;;;;;;;6.47;2.60;;;;;;;20.95;27.87;101288.48;125212;1099;104175;-75
2022/05/08 08:21:18;;;;;;;4.67;2.30;;;;;;;21.01;27.70;101288.52;125224;1099;104237;-74
2022/05/08 08:23:50;;;;;;;8.07;2.57;;;;;;;21.08;28.22;101284.09;124969;1099;104185;-75
2022/05/08 08:26:22;;;;;;;7.15;2.40;;;;;;;21.15;27.24;101284.14;124909;1099;104159;-75
2022/05/08 08:28:55;;;;;;;4.97;2.53;;;;;;;21.26;28.21;101294.86;126342;1095;104530;-75
2022/05/08 08:31:27;;;;;;;8.17;2.90;;;;;;;21.34;27.40;101287.77;125618;1099;102849;-75
2022/05/08 08:33:59;;;;;;;10.87;2.87;;;;;;;21.36;27.31;101286.02;124826;1099;103428;-75
2022/05/08 08:36:31;;;;;;;11.43;3.17;;;;;;;21.51;28.33;101282.52;124880;1099;104253;-75
2022/05/08 08:39:04;;;;;;;5.53;2.87;;;;;;;21.61;27.89;101293.23;125284;1099;104247;-75
2022/05/08 08:41:41;;;;;;;10.03;3.00;;;;;;;21.72;26.40;101287.05;126454;1096;104211;-75
2022/05/08 08:49:53;;;;;;;5.17;2.53;;;;;;;21.72;27.08;101287.05;124458;1099;103422;-76
2022/05/08 08:52:27;;;;;;;6.40;2.60;;;;;;;21.81;26.41;101288.82;124545;1099;102945;-76
2022/05/08 08:54:58;;;;;;;6.27;2.97;;;;;;;21.82;25.20;101279.93;124540;1099;102900;-76
2022/05/08 08:57:30;;;;;;;5.37;2.73;;;;;;;21.93;25.86;101287.08;124615;1099;102511;-77
2022/05/08 09:00:02;;;;;;;7.30;2.80;;;;;;;22.01;25.60;101283.51;124648;1102;104271;-76
2022/05/08 09:02:35;;;;;;;6.53;2.97;;;;;;;22.04;25.34;101279.95;124631;1099;104262;-76
2022/05/08 09:05:09;;;;;;;8.20;3.10;;;;;;;22.04;24.37;101280.84;124828;1102;104396;-76
2022/05/08 09:07:45;;;;;;;4.80;2.72;;;;;;;22.03;24.14;101275.49;124816;1100;104342;-76
2022/05/08 09:10:19;;;;;;;8.43;3.07;;;;;;;22.09;24.87;101278.17;124878;1099;104227;-76
2022/05/08 09:13:06;;;;;;;7.40;3.10;;;;;;;22.14;23.66;101276.38;124913;1102;104389;-76
2022/05/08 09:15:39;;;;;;;7.63;3.07;;;;;;;22.18;24.09;101271.95;124681;1102;104449;-76
2022/05/08 09:18:13;;;;;;;10.93;2.75;;;;;;;22.22;24.14;101263.93;124453;1099;104160;-77
2022/05/08 09:20:47;;;;;;;5.45;2.83;;;;;;;22.12;23.92;101262.14;124270;1101;103499;-76
2022/05/08 09:23:20;;;;;;;6.60;2.90;;;;;;;22.17;24.25;101265.69;124753;1099;104208;-76
2022/05/08 09:26:03;;;;;;;6.23;3.37;;;;;;;22.22;24.26;101266.60;125206;1099;104197;-76
2022/05/08 09:28:40;;;;;;;6.87;3.00;;;;;;;22.23;23.92;101255.00;126355;1097;102612;-76
2022/05/08 09:31:12;;;;;;;8.40;3.30;;;;;;;22.36;22.93;101266.63;126307;1099;101899;-76
2022/05/08 09:33:45;;;;;;;12.93;3.07;;;;;;;22.43;23.30;101259.48;125374;1099;104326;-76
2022/05/08 09:36:22;;;;;;;4.97;2.70;;;;;;;22.43;23.50;101259.48;125094;1098;102177;-76
2022/05/08 09:38:54;;;;;;;7.20;3.20;;;;;;;22.45;23.22;101252.34;125218;1099;104321;-76
2022/05/08 09:41:28;;;;;;;7.10;3.03;;;;;;;22.50;23.00;101249.66;125204;1099;104156;-76
2022/05/08 09:44:12;;;;;;;7.50;3.13;;;;;;;22.52;23.08;101245.22;125144;1097;102948;-76
2022/05/08 09:46:48;;;;;;;8.00;3.20;;;;;;;22.50;22.79;101242.55;125269;1099;102389;-76
2022/05/08 09:49:24;;;;;;;5.50;2.80;;;;;;;22.50;23.05;101241.64;125294;1099;104201;-75
2022/05/08 09:51:57;;;;;;;6.07;3.13;;;;;;;22.53;22.71;101242.55;125016;1099;104245;-76
2022/05/08 09:54:30;;;;;;;5.03;2.43;;;;;;;22.55;22.25;101245.22;125541;1099;102899;-76
2022/05/08 09:57:03;;;;;;;6.12;2.70;;;;;;;22.60;22.78;101246.97;125141;1099;102380;-76
2022/05/08 09:59:35;;;;;;;7.53;3.00;;;;;;;22.52;22.47;101238.08;124948;1099;104067;-76
2022/05/08 10:02:11;;;;;;;3.90;2.43;;;;;;;22.48;22.68;101240.77;124900;1099;104188;-76
2022/05/08 10:04:43;;;;;;;9.30;2.70;;;;;;;22.48;22.69;101233.62;125221;1099;102822;-76
2022/05/08 10:07:15;;;;;;;6.27;2.40;;;;;;;22.47;21.76;101242.55;125572;1099;102746;-76
2022/05/08 10:15:38;;;;;;;8.63;2.90;;;;;;;22.54;22.28;101236.28;125189;1099;104047;-77
2022/05/08 10:18:29;;;;;;;7.37;3.00;;;;;;;22.66;21.69;101234.46;126032;1099;101874;-76
2022/05/08 10:21:08;;;;;;;7.87;2.90;;;;;;;22.69;21.84;101231.78;127081;1099;102225;-76
2022/05/08 10:23:45;;;;;;;9.75;2.77;;;;;;;22.74;21.68;101232.68;126340;1095;104223;-76
2022/05/08 10:26:21;;;;;;;9.30;2.57;;;;;;;22.83;22.32;101238.01;125149;1096;104207;-76
2022/05/08 10:29:16;;;;;;;5.60;2.50;;;;;;;22.81;21.68;101226.39;125949;1096;102768;-76
2022/05/08 10:31:50;;;;;;;3.03;2.70;;;;;;;22.73;22.29;101222.86;124953;1095;104243;-76
2022/05/08 10:34:33;;;;;;;5.53;2.90;;;;;;;22.80;21.71;101213.94;125203;1098;102772;-76
2022/05/08 10:37:28;;;;;;;6.50;2.60;;;;;;;22.84;22.42;101213.01;125212;1099;102165;-77
2022/05/08 10:40:01;;;;;;;8.60;3.00;;;;;;;22.87;21.79;101210.32;124947;1099;104159;-77
2022/05/08 10:42:45;;;;;;;11.17;3.00;;;;;;;22.83;22.32;101202.31;124971;1097;104334;-76
2022/05/08 10:45:44;;;;;;;11.15;3.10;;;;;;;23.04;22.32;101206.70;125029;1096;104255;-76
2022/05/08 10:48:17;;;;;;;6.80;3.03;;;;;;;23.14;22.12;101208.48;125388;1098;104179;-76
2022/05/08 10:50:51;;;;;;;8.98;3.30;;;;;;;23.21;22.00;101196.82;125282;1099;104239;-77
2022/05/08 10:53:27;;;;;;;10.23;2.90;;;;;;;23.22;22.09;101203.05;125425;1099;104638;-76
2022/05/08 10:56:05;;;;;;;4.83;2.77;;;;;;;23.19;21.94;101200.39;125130;1099;102781;-77
2022/05/08 10:58:38;;;;;;;5.77;2.57;;;;;;;23.23;21.74;101197.69;125003;1099;102794;-77
2022/05/08 11:01:11;;;;;;;10.18;3.02;;;;;;;23.28;22.17;101185.19;125019;1099;104204;-77
2022/05/08 11:03:49;;;;;;;8.17;3.20;;;;;;;23.36;21.83;101185.14;125167;1099;104251;-77
2022/05/08 11:06:25;;;;;;;5.63;2.93;;;;;;;23.43;21.70;101180.62;125125;1097;104156;-77
2022/05/08 11:09:03;;;;;;;8.43;2.80;;;;;;;23.48;21.96;101176.13;125147;1099;104229;-76
2022/05/08 11:11:35;;;;;;;6.60;2.90;;;;;;;23.58;21.98;101171.61;124995;1096;104172;-76
2022/05/08 11:14:06;;;;;;;8.37;3.10;;;;;;;23.56;21.53;101168.03;125197;1099;104223;-77
2022/05/08 11:16:38;;;;;;;5.67;2.83;;;;;;;23.58;21.66;101167.13;125205;1098;103218;-76
2022/05/08 11:19:09;;;;;;;5.47;2.63;;;;;;;23.68;21.85;101167.94;125108;1099;104150;-76
2022/05/08 11:21:42;;;;;;;8.77;2.90;;;;;;;23.81;21.52;101155.32;125127;1099;102026;-76
2022/05/08 11:24:28;;;;;;;3.40;2.40;;;;;;;23.80;21.04;101162.48;125633;1099;104227;-76
2022/05/08 11:26:59;;;;;;;5.87;3.00;;;;;;;23.72;21.25;101155.40;125070;1099;102704;-76
2022/05/08 11:29:33;;;;;;;6.87;2.70;;;;;;;23.63;21.23;101159.94;125291;1099;102261;-77
2022/05/08 11:38:08;;;;;;;10.17;2.70;;;;;;;23.43;21.05;101148.50;124585;1099;104261;-76
2022/05/08 11:40:44;;;;;;;4.30;2.60;;;;;;;23.51;21.02;101141.28;125759;1099;102196;-76
2022/05/08 11:43:39;;;;;;;6.87;2.77;;;;;;;23.58;20.97;101139.47;125226;1099;104204;-76
2022/05/08 11:46:15;;;;;;;6.23;2.63;;;;;;;23.61;20.81;101123.38;126241;1098;104332;-76
2022/05/08 11:48:47;;;;;;;6.23;2.10;;;;;;;23.72;21.06;101131.28;125077;1099;102804;-77
2022/05/08 11:51:22;;;;;;;4.30;2.30;;;;;;;23.83;21.00;101126.75;125617;1099;102112;-76
2022/05/08 11:54:00;;;;;;;5.60;2.57;;;;;;;23.88;20.23;101127.61;125421;1099;102473;-76
2022/05/08 11:56:32;;;;;;;4.13;2.50;;;;;;;23.81;20.31;101128.53;125295;1099;101937;-76
2022/05/08 11:59:06;;;;;;;8.70;2.20;;;;;;;23.76;20.39;101123.20;124825;1098;102077;-77
2022/05/08 12:01:38;;;;;;;8.25;2.60;;;;;;;23.88;20.54;101116.89;125050;1099;104225;-76
2022/05/08 12:04:28;;;;;;;4.13;2.73;;;;;;;24.03;20.51;101113.19;124800;1098;102826;-77
2022/05/08 12:07:05;;;;;;;6.70;2.67;;;;;;;24.10;20.25;101116.69;125302;1099;102123;-76